Time;durP1;ratioP1;P1;durP2;ratioP2;P2;SDS_P1;SDS_P2;PMS_P1;PMS_P2;Temp;Humidity;BMP_temperature;BMP_pressure;BME280_temperature;BME280_humidity;BME280_pressure;Samples;Min_cycle;Max_cycle;Signal;HPM_P1;HPM_P2
2022/08/11 00:01:49;;;;;;;1.40;0.90;;;22.20;73.70;;;;;;4949709;28;20492;-77
2022/08/11 00:04:17;;;;;;;1.43;0.90;;;22.10;74.20;;;;;;4957887;28;20918;-77
2022/08/11 00:06:47;;;;;;;1.40;0.90;;;22.10;74.50;;;;;;4947348;28;20522;-78
2022/08/11 00:09:18;;;;;;;1.47;0.90;;;22.00;74.50;;;;;;4958363;28;21066;-78
2022/08/11 00:11:47;;;;;;;1.43;0.90;;;21.90;74.70;;;;;;4956100;28;20466;-77
2022/08/11 00:14:19;;;;;;;1.50;0.97;;;21.90;74.60;;;;;;4949602;29;20466;-77
2022/08/11 00:16:55;;;;;;;1.47;0.90;;;21.80;75.10;;;;;;4955228;28;20488;-77
2022/08/11 00:19:24;;;;;;;1.50;0.90;;;21.80;75.00;;;;;;4950969;29;20474;-78
2022/08/11 00:21:53;;;;;;;1.47;0.90;;;21.80;74.80;;;;;;4947929;28;20502;-77
2022/08/11 00:24:22;;;;;;;1.50;0.90;;;21.70;75.20;;;;;;4946303;28;20553;-77
2022/08/11 00:26:50;;;;;;;1.47;0.90;;;21.60;75.60;;;;;;4953615;28;20582;-79
2022/08/11 00:29:20;;;;;;;1.50;0.90;;;21.60;76.10;;;;;;4952429;29;20549;-78
2022/08/11 00:31:50;;;;;;;1.43;0.90;;;21.50;75.40;;;;;;4948570;28;20547;-78
2022/08/11 00:34:20;;;;;;;1.43;0.90;;;21.50;75.70;;;;;;4957051;28;20499;-77
2022/08/11 00:36:51;;;;;;;1.47;0.90;;;21.50;76.00;;;;;;4949074;28;20493;-78
2022/08/11 00:39:21;;;;;;;1.47;0.90;;;21.40;76.40;;;;;;4958451;28;20467;-77
2022/08/11 00:42:05;;;;;;;1.43;0.90;;;21.40;76.60;;;;;;4948100;28;20497;-78
2022/08/11 00:44:53;;;;;;;1.50;0.93;;;21.30;76.70;;;;;;4951057;29;20475;-77
2022/08/11 00:47:35;;;;;;;4.07;2.13;;;21.30;76.70;;;;;;4952616;28;20863;-78
2022/08/11 00:50:14;;;;;;;1.47;0.90;;;21.20;77.50;;;;;;4951840;29;20997;-78
2022/08/11 00:53:12;;;;;;;1.40;0.90;;;21.20;77.30;;;;;;4937611;28;21178;-78
2022/08/11 00:56:13;;;;;;;1.43;0.90;;;21.20;77.40;;;;;;4950581;29;20521;-77
2022/08/11 00:59:13;;;;;;;1.43;0.90;;;21.10;77.40;;;;;;4946527;29;20847;-78
2022/08/11 01:01:57;;;;;;;1.47;0.90;;;21.10;77.60;;;;;;4952377;28;20497;-78
2022/08/11 01:05:22;;;;;;;1.47;0.90;;;21.00;77.50;;;;;;4951744;28;20474;-77
2022/08/11 01:08:11;;;;;;;1.43;0.90;;;21.00;78.50;;;;;;4912532;29;20496;-78
2022/08/11 01:10:54;;;;;;;1.47;0.90;;;20.90;78.70;;;;;;4952076;28;20466;-78
2022/08/11 01:13:46;;;;;;;1.43;0.90;;;20.90;78.80;;;;;;4939892;28;20834;-78
2022/08/11 01:16:38;;;;;;;1.47;0.90;;;20.80;78.60;;;;;;4939502;28;20485;-78
2022/08/11 01:19:41;;;;;;;1.40;0.90;;;20.80;79.00;;;;;;4947429;28;20466;-79
2022/08/11 01:22:32;;;;;;;1.43;1.00;;;20.70;79.40;;;;;;4952811;28;20997;-78
2022/08/11 01:25:41;;;;;;;1.43;0.90;;;20.70;79.50;;;;;;4955956;28;20466;-78
2022/08/11 01:28:51;;;;;;;1.50;0.90;;;20.60;79.70;;;;;;4960037;28;20490;-78
2022/08/11 01:31:45;;;;;;;1.40;0.90;;;20.60;80.00;;;;;;4953996;28;20516;-78
2022/08/11 01:34:49;;;;;;;1.43;0.90;;;20.50;79.90;;;;;;4958992;28;20483;-78
2022/08/11 01:37:42;;;;;;;1.43;0.90;;;20.50;80.10;;;;;;4952012;28;20980;-78
2022/08/11 01:40:42;;;;;;;1.50;0.90;;;20.40;79.90;;;;;;4954476;28;20459;-79
2022/08/11 01:46:49;;;;;;;1.43;0.90;;;20.40;80.60;;;;;;4875533;29;20525;-78
2022/08/11 01:49:25;;;;;;;1.40;0.90;;;20.30;80.60;;;;;;4949061;28;20923;-78
2022/08/11 01:52:11;;;;;;;1.47;0.90;;;20.30;80.50;;;;;;4941663;28;20754;-78
2022/08/11 01:54:47;;;;;;;1.43;0.90;;;20.30;81.00;;;;;;4949706;28;20666;-78
2022/08/11 01:57:28;;;;;;;1.50;0.90;;;20.20;81.20;;;;;;4960223;28;21094;-79
2022/08/11 02:00:03;;;;;;;1.43;0.90;;;20.20;81.50;;;;;;4955944;28;20542;-78
2022/08/11 02:02:47;;;;;;;1.50;0.90;;;20.20;81.50;;;;;;4958081;28;20484;-78
2022/08/11 02:05:36;;;;;;;1.43;0.90;;;20.10;81.70;;;;;;4955819;29;20843;-79
2022/08/11 02:08:13;;;;;;;1.43;0.90;;;20.10;81.80;;;;;;4943977;29;20679;-79
2022/08/11 02:13:45;;;;;;;1.43;0.90;;;20.00;82.20;;;;;;4940597;29;20497;-78
2022/08/11 02:16:22;;;;;;;1.50;0.90;;;20.00;82.70;;;;;;4946846;28;20783;-79
2022/08/11 02:24:35;;;;;;;1.40;0.90;;;19.90;83.00;;;;;;4949133;29;20454;-78
2022/08/11 02:27:14;;;;;;;1.50;1.00;;;19.90;83.20;;;;;;4953310;28;20534;-78
2022/08/11 02:29:51;;;;;;;1.47;0.90;;;19.80;83.10;;;;;;4952709;28;20474;-78
2022/08/11 02:35:19;;;;;;;1.47;0.90;;;19.80;83.30;;;;;;4952602;29;20469;-78
2022/08/11 02:37:56;;;;;;;1.43;0.90;;;19.80;83.40;;;;;;4960974;28;20492;-78
2022/08/11 02:40:31;;;;;;;1.43;0.90;;;19.70;83.50;;;;;;4952536;29;20485;-78
2022/08/11 02:43:25;;;;;;;1.47;0.90;;;19.70;83.70;;;;;;4952400;28;20499;-78
2022/08/11 02:46:00;;;;;;;1.43;0.90;;;19.70;83.80;;;;;;4951836;28;21106;-78
2022/08/11 02:51:37;;;;;;;1.43;1.00;;;19.60;84.00;;;;;;4952297;28;20454;-79
2022/08/11 02:54:13;;;;;;;1.43;0.90;;;19.50;84.30;;;;;;4951732;29;20558;-78
2022/08/11 02:56:50;;;;;;;1.50;0.90;;;19.50;84.20;;;;;;4959020;28;20544;-78
2022/08/11 02:59:52;;;;;;;1.50;1.00;;;19.50;84.40;;;;;;4947398;29;20471;-79
2022/08/11 03:02:39;;;;;;;1.43;0.90;;;19.50;84.50;;;;;;4954419;28;20488;-79
2022/08/11 03:05:19;;;;;;;1.43;0.90;;;19.40;84.30;;;;;;4952952;28;20976;-80
2022/08/11 03:08:00;;;;;;;1.43;0.90;;;19.40;85.30;;;;;;4953150;28;20490;-79
2022/08/11 03:10:34;;;;;;;1.43;0.90;;;19.40;84.70;;;;;;4952283;29;20471;-78
2022/08/11 03:19:08;;;;;;;1.50;1.20;;;19.30;85.90;;;;;;4962629;28;20983;-79
2022/08/11 03:21:39;;;;;;;1.50;0.90;;;19.30;85.20;;;;;;4952556;28;20512;-78
2022/08/11 03:24:14;;;;;;;1.40;0.90;;;19.20;85.10;;;;;;4951812;29;20497;-78
2022/08/11 03:26:53;;;;;;;1.40;0.90;;;19.20;85.40;;;;;;4948952;28;20521;-79
2022/08/11 03:29:29;;;;;;;1.47;0.90;;;19.20;85.50;;;;;;4957781;28;20499;-79
2022/08/11 03:32:06;;;;;;;1.43;0.90;;;19.20;85.90;;;;;;4956907;28;20470;-79
2022/08/11 03:34:36;;;;;;;1.47;0.90;;;19.10;85.50;;;;;;4953510;29;20553;-79
2022/08/11 03:43:28;;;;;;;1.47;0.90;;;19.10;85.10;;;;;;4953869;28;20478;-79
2022/08/11 03:46:03;;;;;;;1.50;1.00;;;19.00;85.70;;;;;;4945852;28;20478;-79
2022/08/11 03:48:41;;;;;;;1.50;1.00;;;19.00;85.50;;;;;;4967488;28;20514;-79
2022/08/11 03:51:18;;;;;;;1.40;1.00;;;19.00;85.80;;;;;;4955462;28;20485;-80
2022/08/11 03:54:03;;;;;;;1.47;0.90;;;19.00;86.40;;;;;;4976464;28;20867;-78
2022/08/11 03:57:26;;;;;;;1.47;1.00;;;19.00;86.80;;;;;;4960894;28;20489;-78
2022/08/11 04:00:15;;;;;;;1.50;1.00;;;18.90;86.50;;;;;;4902401;29;20476;-79
2022/08/11 04:03:12;;;;;;;1.50;1.00;;;18.90;85.90;;;;;;4950258;28;20493;-80
2022/08/11 04:06:18;;;;;;;1.50;0.90;;;18.80;86.10;;;;;;4956956;29;20467;-80
2022/08/11 04:09:15;;;;;;;1.40;0.90;;;18.80;86.60;;;;;;4957337;29;20549;-80
2022/08/11 04:12:07;;;;;;;1.47;0.90;;;18.80;87.30;;;;;;4957653;28;20956;-82
2022/08/11 04:18:09;;;;;;;1.50;1.00;;;18.70;87.40;;;;;;4958338;28;20491;-82
2022/08/11 04:21:25;;;;;;;1.50;0.90;;;18.70;88.10;;;;;;4953318;28;20554;-81
2022/08/11 04:24:28;;;;;;;1.43;0.90;;;18.70;88.10;;;;;;4942377;28;20470;-82
2022/08/11 04:27:19;;;;;;;1.50;1.00;;;18.70;88.90;;;;;;4954822;28;20482;-82
2022/08/11 04:30:04;;;;;;;1.47;0.90;;;18.70;88.50;;;;;;4958031;28;20477;-82
2022/08/11 04:32:52;;;;;;;1.47;1.00;;;18.60;88.90;;;;;;4950548;28;20491;-81
2022/08/11 04:35:42;;;;;;;1.50;0.90;;;18.60;88.50;;;;;;4958598;28;20485;-82
2022/08/11 04:38:33;;;;;;;1.50;1.00;;;18.60;89.40;;;;;;4958224;28;20486;-82
2022/08/11 04:41:32;;;;;;;1.47;0.90;;;18.60;89.10;;;;;;4945736;28;20483;-82
2022/08/11 04:44:58;;;;;;;1.50;0.93;;;18.60;89.30;;;;;;4966175;28;20477;-81
2022/08/11 05:03:40;;;;;;;1.43;0.90;;;18.70;89.80;;;;;;4969996;28;20475;-80
2022/08/11 05:06:42;;;;;;;1.47;0.90;;;18.70;90.40;;;;;;4880181;29;20501;-79
2022/08/11 05:09:52;;;;;;;1.40;0.90;;;18.70;89.80;;;;;;4951582;29;20467;-82
2022/08/11 05:12:42;;;;;;;1.43;0.90;;;18.70;89.50;;;;;;4961541;28;20937;-81
2022/08/11 05:56:17;;;;;;;1.43;0.90;;;22.00;83.80;;;;;;4950129;28;20563;-79
2022/08/11 05:58:52;;;;;;;1.50;1.00;;;22.20;84.50;;;;;;4971862;28;20460;-79
2022/08/11 06:01:31;;;;;;;1.50;0.90;;;22.40;83.50;;;;;;4961975;28;21007;-80
2022/08/11 06:04:24;;;;;;;1.47;0.90;;;22.80;82.60;;;;;;4956511;28;20465;-81
2022/08/11 06:06:56;;;;;;;1.50;0.90;;;23.10;81.80;;;;;;4963701;28;20482;-80
2022/08/11 06:09:34;;;;;;;1.50;1.00;;;23.30;77.20;;;;;;4968117;28;21047;-80
2022/08/11 06:12:07;;;;;;;1.47;0.90;;;23.50;74.80;;;;;;4964028;28;20493;-79
2022/08/11 06:14:42;;;;;;;1.47;0.90;;;23.70;73.00;;;;;;4965565;28;20490;-80
2022/08/11 06:17:24;;;;;;;1.47;0.90;;;23.80;71.00;;;;;;4957025;29;20479;-80
2022/08/11 06:20:03;;;;;;;1.47;0.90;;;23.80;71.50;;;;;;4963504;29;20557;-80
2022/08/11 06:22:45;;;;;;;;;;;;;;;;;;;;;
2022/08/11 06:25:16;;;;;;;1.43;0.90;;;23.90;69.90;;;;;;4961927;29;20466;-79
2022/08/11 06:27:47;;;;;;;1.47;0.90;;;24.00;69.70;;;;;;4965384;28;20594;-79
2022/08/11 06:30:38;;;;;;;1.70;1.20;;;24.20;69.70;;;;;;4965187;28;21024;-80
2022/08/11 06:33:11;;;;;;;1.47;0.90;;;24.20;68.40;;;;;;4969344;28;20485;-80
2022/08/11 06:35:49;;;;;;;1.50;0.87;;;24.30;69.10;;;;;;4964009;29;20501;-81
2022/08/11 06:38:39;;;;;;;1.50;1.00;;;24.40;68.60;;;;;;4962697;28;20503;-81
2022/08/11 06:41:38;;;;;;;1.47;0.90;;;24.60;68.70;;;;;;4953039;28;20482;-81
2022/08/11 06:44:26;;;;;;;1.43;0.83;;;24.80;67.90;;;;;;4970602;28;20486;-79
2022/08/11 06:46:59;;;;;;;1.43;0.90;;;24.90;68.00;;;;;;4966941;28;20486;-81
2022/08/11 06:52:33;;;;;;;1.43;0.90;;;25.00;68.70;;;;;;4953870;28;20558;-79
2022/08/11 06:55:07;;;;;;;1.47;0.90;;;25.20;67.50;;;;;;4963895;28;21144;-80
2022/08/11 07:00:33;;;;;;;1.47;0.93;;;25.40;68.10;;;;;;4963181;29;20473;-80
2022/08/11 07:03:12;;;;;;;1.50;0.90;;;25.60;67.00;;;;;;4961169;28;21105;-80
2022/08/11 07:05:55;;;;;;;1.43;0.90;;;25.60;65.70;;;;;;4961464;29;21019;-80
2022/08/11 07:15:50;;;;;;;8.50;1.27;;;25.80;65.20;;;;;;4961667;28;20960;-81
2022/08/11 07:30:57;;;;;;;1.50;1.00;;;26.70;65.00;;;;;;4958214;28;20445;-83
2022/08/11 07:33:51;;;;;;;1.43;0.80;;;26.80;64.60;;;;;;4973298;28;20530;-80
2022/08/11 07:36:21;;;;;;;1.43;0.90;;;27.00;64.10;;;;;;4957261;28;20474;-80
2022/08/11 07:39:23;;;;;;;1.47;0.80;;;27.10;64.00;;;;;;4976803;28;20458;-79
2022/08/11 07:42:03;;;;;;;1.47;0.90;;;27.30;64.10;;;;;;4962005;29;20474;-80
2022/08/11 07:48:10;;;;;;;1.50;0.90;;;27.50;63.70;;;;;;4961973;29;20474;-80
2022/08/11 08:19:46;;;;;;;1.43;0.90;;;29.00;59.00;;;;;;4956832;29;20548;-80
2022/08/11 08:22:19;;;;;;;1.47;0.80;;;29.30;58.80;;;;;;4964215;28;20549;-81
2022/08/11 08:24:49;;;;;;;1.40;0.80;;;29.50;58.70;;;;;;4963611;28;20459;-80
2022/08/11 08:27:18;;;;;;;1.40;0.80;;;29.60;58.40;;;;;;4964827;28;20524;-81
2022/08/11 08:33:03;;;;;;;;;;;;;;;;;;;;;
2022/08/11 08:35:31;;;;;;;1.47;0.80;;;29.90;57.50;;;;;;4952338;29;20524;-81
2022/08/11 08:38:01;;;;;;;1.43;0.90;;;30.10;57.80;;;;;;4959183;28;20879;-80
2022/08/11 08:40:56;;;;;;;1.50;1.00;;;30.30;57.40;;;;;;4956601;28;20458;-81
2022/08/11 08:43:25;;;;;;;1.43;0.90;;;30.60;57.50;;;;;;4941068;29;20597;-80
2022/08/11 08:45:57;;;;;;;1.47;0.87;;;30.80;56.80;;;;;;4949197;29;20502;-79
2022/08/11 08:48:31;;;;;;;2.27;1.47;;;31.00;56.10;;;;;;4961492;28;21217;-78
2022/08/11 08:53:55;;;;;;;1.47;0.80;;;31.00;55.70;;;;;;4969603;28;20482;-79
2022/08/11 08:56:33;;;;;;;1.50;1.00;;;31.10;55.70;;;;;;4953778;28;20481;-81
2022/08/11 08:59:05;;;;;;;1.47;0.80;;;31.30;54.90;;;;;;4966323;28;20971;-80
2022/08/11 09:01:54;;;;;;;1.43;0.80;;;31.50;54.90;;;;;;4960300;28;20462;-80
2022/08/11 09:04:28;;;;;;;1.43;0.80;;;31.70;54.50;;;;;;4959871;29;20569;-79
2022/08/11 09:07:02;;;;;;;1.40;0.80;;;31.60;54.60;;;;;;4957634;28;20489;-79
2022/08/11 09:09:36;;;;;;;1.40;0.80;;;31.80;54.90;;;;;;4964057;28;20545;-78
2022/08/11 09:12:24;;;;;;;1.60;1.10;;;32.00;53.90;;;;;;4961787;28;20480;-81
2022/08/11 09:15:05;;;;;;;1.40;0.80;;;31.90;53.30;;;;;;4962058;28;20538;-80
2022/08/11 09:17:40;;;;;;;1.43;0.80;;;31.80;52.80;;;;;;4956973;28;20504;-79
2022/08/11 09:20:18;;;;;;;1.40;0.80;;;31.80;55.00;;;;;;4949787;28;20489;-83
2022/08/11 09:28:36;;;;;;;1.43;0.80;;;32.40;53.90;;;;;;4941320;28;20541;-78
2022/08/11 09:31:09;;;;;;;1.47;0.90;;;32.70;53.40;;;;;;4954455;28;20198;-80
2022/08/11 09:33:41;;;;;;;1.40;0.80;;;32.90;51.90;;;;;;4974641;28;20218;-78
2022/08/11 09:41:49;;;;;;;1.40;0.80;;;32.80;52.30;;;;;;4957400;28;20245;-80
2022/08/11 09:47:17;;;;;;;1.47;0.80;;;32.50;52.00;;;;;;4964089;28;20232;-79
2022/08/11 09:49:47;;;;;;;1.40;0.80;;;32.80;51.20;;;;;;4966653;28;20211;-80
2022/08/11 09:52:18;;;;;;;1.40;0.80;;;33.00;51.60;;;;;;4954035;28;20241;-79
2022/08/11 09:54:51;;;;;;;1.40;0.80;;;33.10;51.40;;;;;;4960755;28;20573;-81
2022/08/11 10:00:13;;;;;;;1.40;0.80;;;33.40;50.50;;;;;;4963984;28;20296;-81
2022/08/11 10:02:45;;;;;;;1.40;0.90;;;33.50;49.20;;;;;;4956598;28;20234;-80
2022/08/11 10:08:04;;;;;;;1.40;0.80;;;33.60;49.20;;;;;;4950981;28;20576;-79
2022/08/11 10:10:36;;;;;;;1.40;0.80;;;33.70;49.50;;;;;;4954177;29;20265;-79
2022/08/11 10:13:09;;;;;;;1.40;0.80;;;34.00;49.60;;;;;;4966894;28;20320;-79
2022/08/11 10:15:37;;;;;;;1.50;0.90;;;33.90;49.10;;;;;;4953750;29;20649;-79
2022/08/11 10:20:59;;;;;;;1.40;0.80;;;34.00;48.80;;;;;;4949138;28;20202;-79
2022/08/11 10:33:58;;;;;;;1.40;0.80;;;34.70;48.40;;;;;;4964050;28;20262;-80
2022/08/11 10:34:41;;;;;;;1.40;0.80;;;34.60;48.50;;;;;;4957253;28;20821;-79
2022/08/11 10:37:11;;;;;;;1.40;0.80;;;34.90;47.90;;;;;;4957266;28;20791;-79
2022/08/11 10:39:45;;;;;;;1.40;0.80;;;34.90;47.60;;;;;;4960709;28;20203;-81
2022/08/11 10:45:01;;;;;;;1.40;0.80;;;34.80;46.80;;;;;;4956576;28;20210;-79
2022/08/11 10:47:33;;;;;;;1.40;0.80;;;34.70;48.10;;;;;;4956616;28;20242;-82
2022/08/11 11:01:15;;;;;;;1.40;0.80;;;34.90;46.90;;;;;;4958758;28;20264;-81
2022/08/11 11:03:51;;;;;;;1.40;0.80;;;34.90;46.50;;;;;;4971843;28;20210;-81
2022/08/11 11:06:29;;;;;;;1.60;1.15;;;35.20;48.40;;;;;;4956042;28;20232;-80
2022/08/11 11:09:07;;;;;;;1.40;0.80;;;35.30;45.90;;;;;;4971201;28;20304;-79
2022/08/11 11:20:34;;;;;;;;;;;;;;;;;;;;;
2022/08/11 11:23:05;;;;;;;1.40;0.80;;;36.00;45.30;;;;;;4962254;28;20275;-81
2022/08/11 11:26:10;;;;;;;1.40;0.80;;;35.70;45.20;;;;;;4955898;29;20268;-80
2022/08/11 11:29:24;;;;;;;1.40;0.80;;;35.60;46.30;;;;;;4958396;28;20230;-80
2022/08/11 11:32:09;;;;;;;1.40;0.80;;;35.60;44.70;;;;;;4926903;28;20336;-79
2022/08/11 11:34:57;;;;;;;1.40;0.80;;;35.60;45.10;;;;;;4962734;28;20226;-79
2022/08/11 11:37:25;;;;;;;1.38;0.80;;;35.80;44.90;;;;;;4966378;28;20286;-81
2022/08/11 11:39:56;;;;;;;1.40;0.80;;;36.00;45.50;;;;;;4957956;28;20203;-79
2022/08/11 11:42:23;;;;;;;1.40;0.80;;;36.00;45.70;;;;;;4936781;28;20242;-81
2022/08/11 11:44:51;;;;;;;1.40;0.80;;;36.10;45.40;;;;;;4959577;28;20685;-80
2022/08/11 11:47:22;;;;;;;1.50;1.05;;;36.00;44.70;;;;;;4957670;28;20238;-79
2022/08/11 11:49:50;;;;;;;1.30;0.80;;;36.00;44.40;;;;;;4958910;29;20258;-81
2022/08/11 11:52:24;;;;;;;1.40;0.80;;;36.10;45.10;;;;;;4965747;28;20301;-80
2022/08/11 11:54:55;;;;;;;1.40;0.80;;;36.10;44.10;;;;;;4963285;28;20233;-82
2022/08/11 12:03:06;;;;;;;1.40;0.80;;;36.00;44.70;;;;;;4965634;28;20256;-82
2022/08/11 12:05:52;;;;;;;1.40;0.90;;;35.70;44.00;;;;;;4961218;28;20217;-82
2022/08/11 12:08:21;;;;;;;1.40;0.90;;;35.50;44.70;;;;;;4938216;29;20640;-81
2022/08/11 12:13:39;;;;;;;1.40;0.90;;;35.70;45.50;;;;;;4945418;28;20214;-82
2022/08/11 12:13:41;;;;;;;1.80;1.00;;;35.90;44.40;;;;;;4960689;28;20596;-81
2022/08/11 12:16:22;;;;;;;;;;;;;;;;;;;;;
2022/08/11 12:18:56;;;;;;;1.77;1.30;;;36.20;43.40;;;;;;4951026;28;20217;-81
2022/08/11 12:21:26;;;;;;;1.40;0.90;;;36.10;43.80;;;;;;4938211;28;20235;-81
2022/08/11 12:29:35;;;;;;;1.38;0.80;;;35.20;45.00;;;;;;4955719;29;20253;-81
2022/08/11 12:32:07;;;;;;;1.40;0.80;;;35.20;45.20;;;;;;4954584;28;20229;-81
2022/08/11 12:34:36;;;;;;;1.40;0.85;;;35.00;44.60;;;;;;4964717;28;20231;-85
2022/08/11 12:37:09;;;;;;;1.40;0.80;;;34.90;45.50;;;;;;4960628;28;20256;-81
2022/08/11 12:45:32;;;;;;;1.35;0.80;;;35.30;45.50;;;;;;4952494;28;20365;-79
2022/08/11 12:53:54;;;;;;;1.40;0.80;;;36.10;44.40;;;;;;4961540;28;20202;-79
2022/08/11 13:04:58;;;;;;;1.40;0.80;;;36.00;43.90;;;;;;4957595;28;20214;-80
2022/08/11 13:07:31;;;;;;;1.40;0.80;;;36.20;43.50;;;;;;4958760;28;20249;-81
2022/08/11 13:10:00;;;;;;;1.40;0.80;;;36.30;43.20;;;;;;4957569;28;20253;-78
2022/08/11 13:12:50;;;;;;;1.40;0.80;;;36.30;43.50;;;;;;4953999;28;20785;-78
2022/08/11 13:15:20;;;;;;;1.38;0.80;;;36.50;44.20;;;;;;4954231;29;20707;-79
2022/08/11 13:17:49;;;;;;;1.40;0.80;;;36.70;43.50;;;;;;4966367;28;20683;-79
2022/08/11 13:20:22;;;;;;;1.40;0.80;;;36.70;44.40;;;;;;4956817;29;20204;-79
2022/08/11 13:22:54;;;;;;;1.38;0.80;;;36.80;42.50;;;;;;4966400;28;20230;-80
2022/08/11 13:25:23;;;;;;;1.40;1.00;;;36.90;43.00;;;;;;4959494;29;20207;-80
2022/08/11 13:27:59;;;;;;;1.40;0.80;;;36.60;42.50;;;;;;4972178;28;20307;-78
2022/08/11 13:33:16;;;;;;;1.40;0.80;;;36.80;43.70;;;;;;4953708;28;20229;-78
2022/08/11 13:35:49;;;;;;;1.40;0.80;;;37.20;44.10;;;;;;4954839;29;20215;-77
2022/08/11 13:38:22;;;;;;;1.40;0.80;;;37.30;42.40;;;;;;4941055;28;20241;-78
2022/08/11 13:40:53;;;;;;;1.40;0.80;;;37.10;41.90;;;;;;4951166;28;20209;-79
2022/08/11 13:43:22;;;;;;;1.38;0.82;;;37.00;42.80;;;;;;4976572;28;20236;-80
2022/08/11 13:46:17;;;;;;;1.40;0.80;;;36.70;43.00;;;;;;4946206;28;20199;-80
2022/08/11 13:48:42;;;;;;;1.38;0.80;;;36.60;42.80;;;;;;4971499;28;20222;-78
2022/08/11 13:51:32;;;;;;;1.40;0.80;;;36.40;42.90;;;;;;4952748;28;20229;-81
2022/08/11 13:54:43;;;;;;;1.40;0.80;;;36.50;43.10;;;;;;4963862;28;20234;-80
2022/08/11 13:57:14;;;;;;;1.40;0.80;;;36.20;42.40;;;;;;4961589;28;20256;-81
2022/08/11 13:59:42;;;;;;;1.40;0.80;;;35.90;43.00;;;;;;4968826;28;20207;-79
2022/08/11 14:02:16;;;;;;;1.40;0.80;;;36.00;43.40;;;;;;4966876;28;20297;-80
2022/08/11 14:04:51;;;;;;;1.50;1.38;;;35.90;44.00;;;;;;4967247;28;20213;-78
2022/08/11 14:07:22;;;;;;;1.58;1.17;;;35.70;43.50;;;;;;4945055;28;20281;-79
2022/08/11 14:10:00;;;;;;;1.38;0.80;;;35.60;45.10;;;;;;4954752;29;20227;-79
2022/08/11 14:15:21;;;;;;;1.40;0.90;;;35.90;44.90;;;;;;4961411;29;20206;-79
2022/08/11 14:17:54;;;;;;;1.40;0.80;;;36.30;44.90;;;;;;4959186;28;20297;-79
2022/08/11 14:20:23;;;;;;;1.40;0.80;;;36.20;43.30;;;;;;4960313;29;20203;-79
2022/08/11 14:22:51;;;;;;;1.75;1.17;;;36.40;44.40;;;;;;4947563;28;20231;-81
2022/08/11 14:25:20;;;;;;;1.35;0.80;;;36.60;43.20;;;;;;4955315;28;20455;-78
2022/08/11 14:27:50;;;;;;;1.33;0.80;;;36.40;43.20;;;;;;4962290;28;20230;-79
2022/08/11 14:33:14;;;;;;;1.40;0.95;;;36.50;44.00;;;;;;4943521;29;20315;-78
2022/08/11 14:35:41;;;;;;;1.40;0.80;;;36.60;44.10;;;;;;4957605;29;20768;-77
2022/08/11 14:38:09;;;;;;;1.38;0.80;;;36.40;42.80;;;;;;4964698;28;20388;-79
2022/08/11 14:48:53;;;;;;;1.40;0.90;;;36.20;43.30;;;;;;4962711;28;20655;-77
2022/08/11 14:51:22;;;;;;;1.40;0.80;;;36.30;43.90;;;;;;4950873;28;20229;-77
2022/08/11 14:56:34;;;;;;;1.40;0.80;;;36.30;44.30;;;;;;4962074;28;20447;-78
2022/08/11 14:56:39;;;;;;;1.40;0.80;;;36.30;44.50;;;;;;4943915;28;20337;-79
2022/08/11 14:59:07;;;;;;;1.40;0.80;;;36.40;44.90;;;;;;4961876;28;20211;-80
2022/08/11 15:04:40;;;;;;;1.33;0.80;;;36.70;43.90;;;;;;4926572;28;20273;-79
2022/08/11 15:07:09;;;;;;;1.38;0.80;;;36.90;43.90;;;;;;4958537;28;20744;-80
2022/08/11 15:09:37;;;;;;;1.33;0.80;;;36.80;43.90;;;;;;4961598;28;20235;-77
2022/08/11 15:12:15;;;;;;;1.95;1.52;;;36.70;44.20;;;;;;4948609;28;20345;-80
2022/08/11 15:17:32;;;;;;;1.40;0.80;;;36.30;43.40;;;;;;4939395;28;20384;-78
2022/08/11 15:25:35;;;;;;;1.40;0.90;;;35.60;44.20;;;;;;4955040;29;20217;-78
2022/08/11 15:39:23;;;;;;;1.40;0.80;;;35.70;44.30;;;;;;4966315;28;20676;-79
2022/08/11 15:47:42;;;;;;;1.40;0.80;;;35.40;44.20;;;;;;5068188;27;20581;-81
2022/08/11 15:50:14;;;;;;;1.40;0.80;;;35.00;44.70;;;;;;5078832;28;21569;-80
2022/08/11 15:52:49;;;;;;;1.40;0.80;;;34.80;44.70;;;;;;5074687;28;20806;-78
2022/08/11 15:55:29;;;;;;;1.40;0.90;;;34.80;45.20;;;;;;5099105;28;20220;-79
2022/08/11 16:04:49;;;;;;;1.70;1.30;;;34.40;45.30;;;;;;5097805;28;20226;-79
2022/08/11 16:07:25;;;;;;;1.40;0.90;;;34.40;45.90;;;;;;5084883;27;20618;-78
2022/08/11 16:28:06;;;;;;;1.98;1.17;;;34.20;47.40;;;;;;5095659;27;20423;-77
2022/08/11 16:30:55;;;;;;;1.50;0.90;;;34.10;47.40;;;;;;5083121;28;20454;-78
2022/08/11 16:33:29;;;;;;;1.43;0.80;;;34.00;47.60;;;;;;5060521;28;20574;-76
2022/08/11 16:38:50;;;;;;;1.40;0.87;;;33.80;47.60;;;;;;5084474;28;20724;-79
2022/08/11 16:46:58;;;;;;;1.40;0.80;;;33.80;47.30;;;;;;5069737;28;20666;-79
2022/08/11 16:47:02;;;;;;;1.40;0.80;;;33.70;47.20;;;;;;5068587;28;20243;-79
2022/08/11 16:49:33;;;;;;;1.40;0.80;;;33.50;47.00;;;;;;5077218;28;20996;-77
2022/08/11 16:52:25;;;;;;;1.40;0.80;;;33.40;47.50;;;;;;5075090;27;20604;-77
2022/08/11 16:54:53;;;;;;;1.40;0.80;;;33.40;47.40;;;;;;5079186;28;20205;-77
2022/08/11 17:00:13;;;;;;;1.43;0.90;;;33.10;47.20;;;;;;5077708;28;20463;-76
2022/08/11 17:13:59;;;;;;;1.40;0.90;;;32.90;48.30;;;;;;5100298;28;20990;-77
2022/08/11 17:16:34;;;;;;;1.40;0.80;;;32.90;48.50;;;;;;5087387;28;20983;-78
2022/08/11 17:19:09;;;;;;;1.60;1.00;;;32.70;48.30;;;;;;5102177;28;20522;-77
2022/08/11 17:23:45;;;;;;;1.40;0.80;;;32.60;48.50;;;;;;5084936;28;20470;-79
2022/08/11 17:24:35;;;;;;;1.40;0.90;;;32.40;48.60;;;;;;5100733;28;20482;-79
2022/08/11 17:27:08;;;;;;;1.43;0.80;;;32.30;48.80;;;;;;5089647;28;20475;-79
2022/08/11 17:29:39;;;;;;;1.47;0.80;;;32.20;48.90;;;;;;5094464;28;20867;-78
2022/08/11 17:37:51;;;;;;;1.50;1.00;;;31.90;49.30;;;;;;5087472;27;20482;-80
2022/08/11 17:40:24;;;;;;;1.47;0.80;;;31.80;49.30;;;;;;5083987;28;20457;-80
2022/08/11 17:48:27;;;;;;;1.47;0.80;;;31.40;49.80;;;;;;5074135;28;20575;-78
2022/08/11 17:50:55;;;;;;;1.47;0.90;;;31.30;49.60;;;;;;5074196;28;20512;-77
2022/08/11 18:01:43;;;;;;;1.40;0.80;;;31.00;50.70;;;;;;5079328;28;20502;-76
2022/08/11 18:04:11;;;;;;;1.43;0.90;;;30.90;51.00;;;;;;5072251;28;20540;-77
2022/08/11 18:06:40;;;;;;;1.50;0.90;;;30.80;50.70;;;;;;5067784;28;20475;-77
